CEB3A RPLL-RPVM
Flight info
| Callsign | CEB3A |
|---|---|
| Flight time | 0h 57m |
| Altitude | 31000 |
| Route | IPATA2R IPATA W25 BATAY BATAY3P |
| Aircraft | A339/H-SADE1E2E3GHIJ3J5M1P2RWXY/LB2D1 |
Departure
| Time | 2026-05-05 14:10 |
|---|---|
| Airport | Ninoy Aquino International Airport (RPLL) |
Arrival
| Time | 2026-05-05 15:07 |
|---|---|
| Airport | Mactan Cebu International Airport (RPVM) |
| Time | Latitude | Longitude | Altitude | Speed | Heading |
|---|---|---|---|---|---|
| 2026-05-05 13:18 | 14.51657 | 121.01514 | 90 ft | 0 kts | 46° |
| 2026-05-05 13:49 | 14.51652 | 121.01509 | 90 ft | 2 kts | 46° |
| 2026-05-05 13:49 | 14.51642 | 121.01498 | 90 ft | 2 kts | 46° |
| 2026-05-05 13:50 | 14.51632 | 121.01487 | 90 ft | 2 kts | 46° |
| 2026-05-05 13:50 | 14.51623 | 121.01478 | 90 ft | 1 kts | 45° |
| 2026-05-05 13:50 | 14.51613 | 121.01466 | 90 ft | 2 kts | 62° |
| 2026-05-05 13:50 | 14.51609 | 121.01452 | 90 ft | 2 kts | 86° |
| 2026-05-05 13:51 | 14.51610 | 121.01436 | 90 ft | 2 kts | 109° |
| 2026-05-05 13:51 | 14.51617 | 121.01422 | 90 ft | 2 kts | 131° |
| 2026-05-05 13:51 | 14.51628 | 121.01411 | 90 ft | 2 kts | 136° |
| 2026-05-05 13:51 | 14.51638 | 121.01401 | 90 ft | 1 kts | 133° |
| 2026-05-05 13:52 | 14.51639 | 121.01399 | 90 ft | 0 kts | 133° |
| 2026-05-05 13:53 | 14.51632 | 121.01408 | 90 ft | 3 kts | 133° |
| 2026-05-05 13:54 | 14.51607 | 121.01434 | 90 ft | 7 kts | 134° |
| 2026-05-05 13:54 | 14.51555 | 121.01489 | 90 ft | 13 kts | 134° |
| 2026-05-05 13:54 | 14.51482 | 121.01562 | 90 ft | 15 kts | 135° |
| 2026-05-05 13:54 | 14.51404 | 121.01643 | 90 ft | 15 kts | 134° |
| 2026-05-05 13:55 | 14.51325 | 121.01726 | 90 ft | 16 kts | 134° |
| 2026-05-05 13:55 | 14.51246 | 121.01808 | 90 ft | 16 kts | 135° |
| 2026-05-05 13:55 | 14.51166 | 121.01890 | 90 ft | 14 kts | 134° |
| 2026-05-05 13:55 | 14.51125 | 121.01932 | 90 ft | 3 kts | 136° |
| 2026-05-05 13:56 | 14.51117 | 121.01940 | 90 ft | 1 kts | 136° |
| 2026-05-05 13:56 | 14.51099 | 121.01958 | 90 ft | 5 kts | 136° |
| 2026-05-05 13:56 | 14.51068 | 121.01981 | 90 ft | 5 kts | 165° |
| 2026-05-05 13:56 | 14.51028 | 121.01957 | 90 ft | 8 kts | 232° |
| 2026-05-05 13:57 | 14.50989 | 121.01893 | 90 ft | 12 kts | 239° |
| 2026-05-05 13:57 | 14.50941 | 121.01808 | 90 ft | 14 kts | 240° |
| 2026-05-05 13:57 | 14.50886 | 121.01708 | 90 ft | 17 kts | 240° |
| 2026-05-05 13:57 | 14.50822 | 121.01594 | 90 ft | 19 kts | 240° |
| 2026-05-05 13:58 | 14.50788 | 121.01533 | 90 ft | 19 kts | 240° |
| 2026-05-05 13:58 | 14.50719 | 121.01407 | 90 ft | 20 kts | 240° |
| 2026-05-05 13:58 | 14.50644 | 121.01274 | 90 ft | 21 kts | 239° |
| 2026-05-05 13:58 | 14.50567 | 121.01137 | 90 ft | 22 kts | 240° |
| 2026-05-05 13:59 | 14.50412 | 121.00860 | 90 ft | 21 kts | 240° |
| 2026-05-05 13:59 | 14.50339 | 121.00725 | 90 ft | 21 kts | 239° |
| 2026-05-05 14:00 | 14.50193 | 121.00465 | 90 ft | 20 kts | 239° |
| 2026-05-05 14:00 | 14.50122 | 121.00336 | 90 ft | 20 kts | 241° |
| 2026-05-05 14:00 | 14.50055 | 121.00213 | 90 ft | 19 kts | 240° |
| 2026-05-05 14:00 | 14.49989 | 121.00095 | 90 ft | 16 kts | 240° |
| 2026-05-05 14:01 | 14.49952 | 121.00028 | 90 ft | 0 kts | 240° |
| 2026-05-05 14:04 | 14.49951 | 121.00028 | 90 ft | 0 kts | 240° |
| 2026-05-05 14:04 | 14.49951 | 121.00026 | 90 ft | 1 kts | 240° |
| 2026-05-05 14:04 | 14.49925 | 120.99980 | 90 ft | 7 kts | 239° |
| 2026-05-05 14:05 | 14.49890 | 120.99960 | 90 ft | 4 kts | 175° |
| 2026-05-05 14:05 | 14.49884 | 120.99962 | 90 ft | 0 kts | 158° |
| 2026-05-05 14:06 | 14.49854 | 120.99977 | 90 ft | 9 kts | 151° |
| 2026-05-05 14:07 | 14.49803 | 121.00011 | 90 ft | 8 kts | 137° |
| 2026-05-05 14:07 | 14.49801 | 121.00044 | 90 ft | 6 kts | 63° |
| 2026-05-05 14:07 | 14.49811 | 121.00063 | 90 ft | 0 kts | 60° |
| 2026-05-05 14:08 | 14.49816 | 121.00071 | 90 ft | 2 kts | 60° |
| 2026-05-05 14:09 | 14.49845 | 121.00124 | 90 ft | 14 kts | 61° |
| 2026-05-05 14:09 | 14.49999 | 121.00404 | 90 ft | 76 kts | 60° |
| 2026-05-05 14:09 | 14.50366 | 121.01062 | 90 ft | 132 kts | 60° |
| 2026-05-05 14:09 | 14.50894 | 121.02009 | 176 ft | 168 kts | 62° |
| 2026-05-05 14:10 | 14.51477 | 121.03050 | 739 ft | 165 kts | 62° |
| 2026-05-05 14:10 | 14.52030 | 121.04046 | 1430 ft | 157 kts | 61° |
| 2026-05-05 14:10 | 14.52549 | 121.04985 | 2019 ft | 152 kts | 61° |
| 2026-05-05 14:10 | 14.53069 | 121.05924 | 2531 ft | 149 kts | 61° |
| 2026-05-05 14:11 | 14.53582 | 121.06847 | 2896 ft | 150 kts | 61° |
| 2026-05-05 14:11 | 14.54108 | 121.07796 | 3236 ft | 153 kts | 61° |
| 2026-05-05 14:11 | 14.54661 | 121.08793 | 3481 ft | 165 kts | 60° |
| 2026-05-05 14:11 | 14.55246 | 121.09848 | 3720 ft | 178 kts | 60° |
| 2026-05-05 14:12 | 14.55889 | 121.11005 | 3968 ft | 191 kts | 60° |
| 2026-05-05 14:12 | 14.56581 | 121.12252 | 4230 ft | 207 kts | 61° |
| 2026-05-05 14:12 | 14.57118 | 121.13663 | 4518 ft | 223 kts | 86° |
| 2026-05-05 14:12 | 14.56833 | 121.15290 | 4827 ft | 242 kts | 117° |
| 2026-05-05 14:13 | 14.55765 | 121.16718 | 5146 ft | 261 kts | 130° |
| 2026-05-05 14:13 | 14.54526 | 121.18169 | 5576 ft | 274 kts | 130° |
| 2026-05-05 14:13 | 14.53252 | 121.19666 | 6243 ft | 278 kts | 129° |
| 2026-05-05 14:13 | 14.51992 | 121.21152 | 6956 ft | 279 kts | 129° |
| 2026-05-05 14:14 | 14.50707 | 121.22670 | 7654 ft | 281 kts | 129° |
| 2026-05-05 14:14 | 14.49419 | 121.24193 | 8348 ft | 282 kts | 129° |
| 2026-05-05 14:14 | 14.48125 | 121.25726 | 9010 ft | 284 kts | 129° |
| 2026-05-05 14:14 | 14.46838 | 121.27248 | 9657 ft | 286 kts | 129° |
| 2026-05-05 14:15 | 14.45519 | 121.28811 | 10281 ft | 289 kts | 129° |
| 2026-05-05 14:15 | 14.44158 | 121.30423 | 10631 ft | 303 kts | 129° |
| 2026-05-05 14:15 | 14.42746 | 121.32094 | 10950 ft | 317 kts | 129° |
| 2026-05-05 14:15 | 14.41275 | 121.33836 | 11485 ft | 323 kts | 129° |
| 2026-05-05 14:16 | 14.39812 | 121.35564 | 12073 ft | 326 kts | 129° |
| 2026-05-05 14:16 | 14.38320 | 121.37328 | 12665 ft | 329 kts | 130° |
| 2026-05-05 14:16 | 14.36796 | 121.39130 | 13237 ft | 332 kts | 130° |
| 2026-05-05 14:16 | 14.35277 | 121.40926 | 13789 ft | 335 kts | 130° |
| 2026-05-05 14:17 | 14.33734 | 121.42750 | 14351 ft | 338 kts | 130° |
| 2026-05-05 14:17 | 14.32198 | 121.44565 | 14874 ft | 342 kts | 130° |
| 2026-05-05 14:17 | 14.30628 | 121.46418 | 15406 ft | 345 kts | 130° |
| 2026-05-05 14:17 | 14.29037 | 121.48285 | 15931 ft | 348 kts | 131° |
| 2026-05-05 14:18 | 14.27323 | 121.50063 | 16449 ft | 351 kts | 136° |
| 2026-05-05 14:18 | 14.25463 | 121.51692 | 16965 ft | 354 kts | 141° |
| 2026-05-05 14:18 | 14.23485 | 121.53224 | 17474 ft | 356 kts | 143° |
| 2026-05-05 14:18 | 14.21489 | 121.54740 | 17982 ft | 359 kts | 143° |
| 2026-05-05 14:19 | 14.19459 | 121.56280 | 18494 ft | 361 kts | 143° |
| 2026-05-05 14:19 | 14.17435 | 121.57818 | 19004 ft | 364 kts | 143° |
| 2026-05-05 14:19 | 14.15394 | 121.59371 | 19497 ft | 367 kts | 143° |
| 2026-05-05 14:19 | 14.13339 | 121.60934 | 19986 ft | 369 kts | 143° |
| 2026-05-05 14:20 | 14.11242 | 121.62531 | 20460 ft | 372 kts | 143° |
| 2026-05-05 14:20 | 14.09146 | 121.64127 | 20924 ft | 375 kts | 143° |
| 2026-05-05 14:20 | 14.07054 | 121.65720 | 21383 ft | 377 kts | 143° |
| 2026-05-05 14:20 | 14.04940 | 121.67333 | 21854 ft | 379 kts | 143° |
| 2026-05-05 14:21 | 14.02788 | 121.68974 | 22317 ft | 381 kts | 143° |
| 2026-05-05 14:21 | 14.00666 | 121.70593 | 22776 ft | 383 kts | 143° |
| 2026-05-05 14:21 | 13.98516 | 121.72234 | 23210 ft | 386 kts | 143° |
| 2026-05-05 14:21 | 13.96357 | 121.73880 | 23615 ft | 389 kts | 143° |
| 2026-05-05 14:22 | 13.94149 | 121.75563 | 24032 ft | 392 kts | 143° |
| 2026-05-05 14:22 | 13.91948 | 121.77242 | 24425 ft | 395 kts | 143° |
| 2026-05-05 14:22 | 13.89754 | 121.78914 | 24804 ft | 398 kts | 143° |
| 2026-05-05 14:22 | 13.87510 | 121.80624 | 25213 ft | 401 kts | 144° |
| 2026-05-05 14:23 | 13.85253 | 121.82338 | 25615 ft | 404 kts | 144° |
| 2026-05-05 14:23 | 13.82953 | 121.84072 | 26007 ft | 406 kts | 144° |
| 2026-05-05 14:23 | 13.80673 | 121.85788 | 26390 ft | 409 kts | 144° |
| 2026-05-05 14:23 | 13.78371 | 121.87521 | 26769 ft | 411 kts | 144° |
| 2026-05-05 14:24 | 13.76061 | 121.89261 | 27136 ft | 414 kts | 144° |
| 2026-05-05 14:24 | 13.73711 | 121.91032 | 27504 ft | 416 kts | 144° |
| 2026-05-05 14:24 | 13.71392 | 121.92780 | 27864 ft | 418 kts | 144° |
| 2026-05-05 14:24 | 13.69009 | 121.94577 | 28228 ft | 421 kts | 144° |
| 2026-05-05 14:25 | 13.66639 | 121.96363 | 28585 ft | 423 kts | 144° |
| 2026-05-05 14:25 | 13.64266 | 121.98151 | 28937 ft | 425 kts | 144° |
| 2026-05-05 14:25 | 13.61873 | 121.99953 | 29273 ft | 428 kts | 144° |
| 2026-05-05 14:25 | 13.59455 | 122.01775 | 29596 ft | 431 kts | 144° |
| 2026-05-05 14:26 | 13.56553 | 122.03960 | 29971 ft | 433 kts | 144° |
| 2026-05-05 14:26 | 13.51615 | 122.07678 | 30563 ft | 437 kts | 145° |
| 2026-05-05 14:26 | 13.47782 | 122.10562 | 30906 ft | 441 kts | 145° |
| 2026-05-05 14:26 | 13.45286 | 122.12439 | 30912 ft | 442 kts | 145° |
| 2026-05-05 14:27 | 13.40312 | 122.16177 | 30919 ft | 442 kts | 145° |
| 2026-05-05 14:27 | 13.35260 | 122.19971 | 30918 ft | 458 kts | 145° |
| 2026-05-05 14:28 | 13.29987 | 122.23929 | 30909 ft | 477 kts | 144° |
| 2026-05-05 14:28 | 13.24527 | 122.28026 | 30901 ft | 482 kts | 144° |
| 2026-05-05 14:29 | 13.19093 | 122.32103 | 30900 ft | 483 kts | 144° |
| 2026-05-05 14:29 | 13.13665 | 122.36175 | 30901 ft | 483 kts | 144° |
| 2026-05-05 14:30 | 13.08223 | 122.40254 | 30896 ft | 483 kts | 145° |
| 2026-05-05 14:30 | 13.02783 | 122.44328 | 30899 ft | 484 kts | 145° |
| 2026-05-05 14:31 | 12.97346 | 122.48398 | 30898 ft | 483 kts | 145° |
| 2026-05-05 14:31 | 12.91910 | 122.52465 | 30899 ft | 483 kts | 144° |
| 2026-05-05 14:32 | 12.86491 | 122.56516 | 30899 ft | 483 kts | 144° |
| 2026-05-05 14:32 | 12.78856 | 122.62222 | 30899 ft | 483 kts | 144° |
| 2026-05-05 14:33 | 12.70437 | 122.68509 | 30894 ft | 483 kts | 145° |
| 2026-05-05 14:33 | 12.64978 | 122.72585 | 30893 ft | 483 kts | 145° |
| 2026-05-05 14:34 | 12.59542 | 122.76640 | 30890 ft | 483 kts | 145° |
| 2026-05-05 14:34 | 12.54047 | 122.80737 | 30889 ft | 483 kts | 145° |
| 2026-05-05 14:35 | 12.45368 | 122.87205 | 30889 ft | 483 kts | 145° |
| 2026-05-05 14:35 | 12.39928 | 122.91258 | 30889 ft | 483 kts | 145° |
| 2026-05-05 14:36 | 12.34475 | 122.95318 | 30889 ft | 483 kts | 145° |
| 2026-05-05 14:36 | 12.29024 | 122.99365 | 30896 ft | 482 kts | 145° |
| 2026-05-05 14:37 | 12.23570 | 123.03408 | 30900 ft | 483 kts | 145° |
| 2026-05-05 14:37 | 12.18142 | 123.07436 | 30905 ft | 483 kts | 145° |
| 2026-05-05 14:38 | 12.12746 | 123.11442 | 30902 ft | 469 kts | 145° |
| 2026-05-05 14:38 | 12.10153 | 123.13369 | 30880 ft | 456 kts | 145° |
| 2026-05-05 14:38 | 12.07611 | 123.15256 | 30652 ft | 447 kts | 145° |
| 2026-05-05 14:39 | 12.05082 | 123.17130 | 30334 ft | 442 kts | 145° |
| 2026-05-05 14:39 | 12.02635 | 123.18945 | 29989 ft | 437 kts | 145° |
| 2026-05-05 14:39 | 12.00131 | 123.20800 | 29622 ft | 433 kts | 144° |
| 2026-05-05 14:39 | 11.97707 | 123.22597 | 29259 ft | 429 kts | 144° |
| 2026-05-05 14:40 | 11.95309 | 123.24374 | 28895 ft | 425 kts | 144° |
| 2026-05-05 14:40 | 11.92920 | 123.26145 | 28533 ft | 421 kts | 144° |
| 2026-05-05 14:40 | 11.90573 | 123.27882 | 28177 ft | 418 kts | 144° |
| 2026-05-05 14:40 | 11.88190 | 123.29647 | 27822 ft | 415 kts | 144° |
| 2026-05-05 14:41 | 11.85843 | 123.31385 | 27473 ft | 411 kts | 144° |
| 2026-05-05 14:41 | 11.83504 | 123.33116 | 27119 ft | 408 kts | 144° |
| 2026-05-05 14:41 | 11.81227 | 123.34802 | 26774 ft | 405 kts | 144° |
| 2026-05-05 14:41 | 11.78939 | 123.36494 | 26423 ft | 402 kts | 144° |
| 2026-05-05 14:42 | 11.76685 | 123.38163 | 26081 ft | 399 kts | 144° |
| 2026-05-05 14:42 | 11.74454 | 123.39814 | 25740 ft | 396 kts | 144° |
| 2026-05-05 14:42 | 11.72221 | 123.41466 | 25396 ft | 393 kts | 144° |
| 2026-05-05 14:42 | 11.70024 | 123.43090 | 25061 ft | 390 kts | 144° |
| 2026-05-05 14:43 | 11.67810 | 123.44727 | 24718 ft | 387 kts | 144° |
| 2026-05-05 14:43 | 11.65645 | 123.46327 | 24381 ft | 384 kts | 143° |
| 2026-05-05 14:43 | 11.63485 | 123.47923 | 24045 ft | 381 kts | 143° |
| 2026-05-05 14:43 | 11.61348 | 123.49502 | 23708 ft | 379 kts | 143° |
| 2026-05-05 14:44 | 11.59237 | 123.51060 | 23375 ft | 376 kts | 143° |
| 2026-05-05 14:44 | 11.57097 | 123.52640 | 23041 ft | 374 kts | 143° |
| 2026-05-05 14:44 | 11.54996 | 123.54192 | 22704 ft | 371 kts | 143° |
| 2026-05-05 14:44 | 11.52910 | 123.55731 | 22376 ft | 369 kts | 143° |
| 2026-05-05 14:45 | 11.50817 | 123.57277 | 22048 ft | 367 kts | 143° |
| 2026-05-05 14:45 | 11.48764 | 123.58793 | 21717 ft | 365 kts | 143° |
| 2026-05-05 14:45 | 11.46707 | 123.60310 | 21382 ft | 363 kts | 143° |
| 2026-05-05 14:45 | 11.44659 | 123.61821 | 21045 ft | 361 kts | 143° |
| 2026-05-05 14:46 | 11.42618 | 123.63327 | 20706 ft | 360 kts | 143° |
| 2026-05-05 14:46 | 11.40612 | 123.64807 | 20373 ft | 358 kts | 143° |
| 2026-05-05 14:46 | 11.38565 | 123.66316 | 20034 ft | 357 kts | 143° |
| 2026-05-05 14:46 | 11.36555 | 123.67797 | 19699 ft | 356 kts | 143° |
| 2026-05-05 14:47 | 11.34557 | 123.69270 | 19366 ft | 354 kts | 143° |
| 2026-05-05 14:47 | 11.32566 | 123.70739 | 19033 ft | 353 kts | 143° |
| 2026-05-05 14:47 | 11.30575 | 123.72206 | 18700 ft | 351 kts | 143° |
| 2026-05-05 14:47 | 11.28579 | 123.73651 | 18370 ft | 353 kts | 147° |
| 2026-05-05 14:48 | 11.26275 | 123.74613 | 18033 ft | 361 kts | 168° |
| 2026-05-05 14:48 | 11.23771 | 123.74822 | 17719 ft | 363 kts | 176° |
| 2026-05-05 14:48 | 11.21241 | 123.74957 | 17393 ft | 362 kts | 175° |
| 2026-05-05 14:48 | 11.18728 | 123.75108 | 17071 ft | 360 kts | 175° |
| 2026-05-05 14:49 | 11.16193 | 123.75265 | 16747 ft | 359 kts | 175° |
| 2026-05-05 14:49 | 11.13701 | 123.75398 | 16426 ft | 358 kts | 177° |
| 2026-05-05 14:49 | 11.11201 | 123.75393 | 16080 ft | 357 kts | 179° |
| 2026-05-05 14:49 | 11.08709 | 123.75330 | 15751 ft | 356 kts | 180° |
| 2026-05-05 14:50 | 11.06246 | 123.75272 | 15433 ft | 353 kts | 179° |
| 2026-05-05 14:50 | 11.03777 | 123.75229 | 15100 ft | 351 kts | 179° |
| 2026-05-05 14:50 | 11.01326 | 123.75196 | 14760 ft | 350 kts | 179° |
| 2026-05-05 14:50 | 10.98899 | 123.75172 | 14431 ft | 348 kts | 179° |
| 2026-05-05 14:51 | 10.96472 | 123.75150 | 14110 ft | 346 kts | 179° |
| 2026-05-05 14:51 | 10.94035 | 123.75131 | 13781 ft | 344 kts | 178° |
| 2026-05-05 14:51 | 10.91640 | 123.75113 | 13457 ft | 342 kts | 179° |
| 2026-05-05 14:51 | 10.89268 | 123.75096 | 13127 ft | 341 kts | 178° |
| 2026-05-05 14:52 | 10.86864 | 123.75079 | 12783 ft | 340 kts | 179° |
| 2026-05-05 14:52 | 10.84494 | 123.75062 | 12457 ft | 338 kts | 179° |
| 2026-05-05 14:52 | 10.82141 | 123.75043 | 12141 ft | 337 kts | 179° |
| 2026-05-05 14:52 | 10.79808 | 123.74862 | 11826 ft | 336 kts | 186° |
| 2026-05-05 14:53 | 10.77506 | 123.74395 | 11515 ft | 336 kts | 192° |
| 2026-05-05 14:53 | 10.75253 | 123.73783 | 11211 ft | 334 kts | 194° |
| 2026-05-05 14:53 | 10.72995 | 123.73141 | 10904 ft | 332 kts | 194° |
| 2026-05-05 14:53 | 10.70786 | 123.72513 | 10599 ft | 330 kts | 194° |
| 2026-05-05 14:54 | 10.68565 | 123.71886 | 10301 ft | 328 kts | 193° |
| 2026-05-05 14:54 | 10.66380 | 123.71275 | 10092 ft | 322 kts | 193° |
| 2026-05-05 14:54 | 10.64236 | 123.70676 | 9933 ft | 312 kts | 193° |
| 2026-05-05 14:54 | 10.62140 | 123.70091 | 9772 ft | 303 kts | 193° |
| 2026-05-05 14:55 | 10.60121 | 123.69530 | 9550 ft | 298 kts | 193° |
| 2026-05-05 14:55 | 10.58126 | 123.68975 | 9298 ft | 296 kts | 193° |
| 2026-05-05 14:55 | 10.56139 | 123.68422 | 9035 ft | 295 kts | 193° |
| 2026-05-05 14:55 | 10.54146 | 123.67868 | 8777 ft | 294 kts | 193° |
| 2026-05-05 14:56 | 10.52160 | 123.67316 | 8517 ft | 293 kts | 193° |
| 2026-05-05 14:56 | 10.50185 | 123.66766 | 8260 ft | 292 kts | 193° |
| 2026-05-05 14:56 | 10.48223 | 123.66219 | 7998 ft | 291 kts | 193° |
| 2026-05-05 14:56 | 10.46264 | 123.65674 | 7739 ft | 290 kts | 193° |
| 2026-05-05 14:57 | 10.44322 | 123.65134 | 7496 ft | 289 kts | 193° |
| 2026-05-05 14:57 | 10.42375 | 123.64592 | 7250 ft | 287 kts | 193° |
| 2026-05-05 14:57 | 10.40434 | 123.64053 | 7003 ft | 286 kts | 193° |
| 2026-05-05 14:57 | 10.38498 | 123.63514 | 6752 ft | 285 kts | 193° |
| 2026-05-05 14:58 | 10.36573 | 123.62983 | 6508 ft | 283 kts | 191° |
| 2026-05-05 14:58 | 10.34642 | 123.62900 | 6170 ft | 280 kts | 162° |
| 2026-05-05 14:58 | 10.32964 | 123.63850 | 5851 ft | 275 kts | 134° |
| 2026-05-05 14:58 | 10.31654 | 123.65242 | 5559 ft | 272 kts | 132° |
| 2026-05-05 14:59 | 10.30353 | 123.66612 | 5298 ft | 266 kts | 132° |
| 2026-05-05 14:59 | 10.29059 | 123.67950 | 5051 ft | 263 kts | 132° |
| 2026-05-05 14:59 | 10.27780 | 123.69263 | 4793 ft | 260 kts | 133° |
| 2026-05-05 14:59 | 10.26505 | 123.70564 | 4540 ft | 258 kts | 132° |
| 2026-05-05 15:00 | 10.25656 | 123.71428 | 4375 ft | 257 kts | 133° |
| 2026-05-05 15:00 | 10.24393 | 123.72714 | 4139 ft | 255 kts | 133° |
| 2026-05-05 15:00 | 10.22743 | 123.74391 | 4015 ft | 244 kts | 133° |
| 2026-05-05 15:00 | 10.21547 | 123.75606 | 3876 ft | 240 kts | 133° |
| 2026-05-05 15:01 | 10.20383 | 123.76789 | 3710 ft | 235 kts | 133° |
| 2026-05-05 15:01 | 10.19237 | 123.77954 | 3551 ft | 230 kts | 133° |
| 2026-05-05 15:01 | 10.18117 | 123.79092 | 3402 ft | 224 kts | 133° |
| 2026-05-05 15:01 | 10.17023 | 123.80201 | 3250 ft | 218 kts | 133° |
| 2026-05-05 15:02 | 10.16142 | 123.81383 | 3078 ft | 209 kts | 105° |
| 2026-05-05 15:02 | 10.16083 | 123.82790 | 2966 ft | 196 kts | 72° |
| 2026-05-05 15:02 | 10.16746 | 123.83942 | 2878 ft | 186 kts | 47° |
| 2026-05-05 15:02 | 10.17646 | 123.84843 | 2776 ft | 178 kts | 44° |
| 2026-05-05 15:03 | 10.18529 | 123.85701 | 2672 ft | 170 kts | 44° |
| 2026-05-05 15:03 | 10.19382 | 123.86535 | 2590 ft | 169 kts | 44° |
| 2026-05-05 15:03 | 10.20223 | 123.87367 | 2503 ft | 162 kts | 45° |
| 2026-05-05 15:03 | 10.20998 | 123.88137 | 2392 ft | 149 kts | 45° |
| 2026-05-05 15:04 | 10.21716 | 123.88854 | 2198 ft | 143 kts | 45° |
| 2026-05-05 15:04 | 10.22429 | 123.89568 | 2018 ft | 144 kts | 45° |
| 2026-05-05 15:04 | 10.23147 | 123.90288 | 1827 ft | 144 kts | 45° |
| 2026-05-05 15:04 | 10.23862 | 123.91006 | 1656 ft | 144 kts | 45° |
| 2026-05-05 15:05 | 10.25279 | 123.92428 | 1291 ft | 142 kts | 44° |
| 2026-05-05 15:05 | 10.25990 | 123.93142 | 1100 ft | 142 kts | 44° |
| 2026-05-05 15:05 | 10.26690 | 123.93845 | 914 ft | 141 kts | 44° |
| 2026-05-05 15:06 | 10.27396 | 123.94554 | 726 ft | 141 kts | 44° |
| 2026-05-05 15:06 | 10.28096 | 123.95267 | 534 ft | 141 kts | 45° |
| 2026-05-05 15:06 | 10.28786 | 123.95976 | 346 ft | 140 kts | 44° |
| 2026-05-05 15:06 | 10.29477 | 123.96664 | 154 ft | 139 kts | 44° |
| 2026-05-05 15:07 | 10.30157 | 123.97341 | 55 ft | 129 kts | 45° |
| 2026-05-05 15:07 | 10.30677 | 123.97863 | 54 ft | 77 kts | 44° |
| 2026-05-05 15:07 | 10.30954 | 123.98141 | 54 ft | 45 kts | 44° |
| 2026-05-05 15:07 | 10.31148 | 123.98298 | 54 ft | 25 kts | 26° |
| 2026-05-05 15:08 | 10.31264 | 123.98341 | 54 ft | 11 kts | 15° |
| 2026-05-05 15:08 | 10.31338 | 123.98350 | 54 ft | 10 kts | 350° |
| 2026-05-05 15:08 | 10.31403 | 123.98309 | 54 ft | 11 kts | 316° |
| 2026-05-05 15:08 | 10.31465 | 123.98247 | 54 ft | 12 kts | 315° |
| 2026-05-05 15:09 | 10.31531 | 123.98180 | 54 ft | 13 kts | 314° |
| 2026-05-05 15:09 | 10.31564 | 123.98143 | 54 ft | 5 kts | 300° |
| 2026-05-05 15:09 | 10.31558 | 123.98099 | 54 ft | 7 kts | 231° |
| 2026-05-05 15:09 | 10.31515 | 123.98056 | 54 ft | 8 kts | 225° |
| 2026-05-05 15:10 | 10.31488 | 123.98029 | 54 ft | 8 kts | 225° |
| 2026-05-05 15:10 | 10.31459 | 123.97993 | 54 ft | 4 kts | 257° |
| 2026-05-05 15:10 | 10.31487 | 123.97946 | 54 ft | 4 kts | 314° |
| 2026-05-05 15:10 | 10.31497 | 123.97935 | 54 ft | 0 kts | 315° |